sensor_id;sensor_type;location;lat;lon;timestamp;temperature;humidity
51982;DHT22;37998;53.416;6.730;2023-04-02T00:06:33;3.80;99.90
51982;DHT22;37998;53.416;6.730;2023-04-02T00:11:45;3.80;99.90
51982;DHT22;37998;53.416;6.730;2023-04-02T00:14:22;3.70;99.90
51982;DHT22;37998;53.416;6.730;2023-04-02T00:16:49;3.70;99.90
51982;DHT22;37998;53.416;6.730;2023-04-02T00:19:22;3.70;99.90
51982;DHT22;37998;53.416;6.730;2023-04-02T00:21:49;3.70;99.90
51982;DHT22;37998;53.416;6.730;2023-04-02T00:24:19;3.70;99.90
51982;DHT22;37998;53.416;6.730;2023-04-02T00:26:48;3.70;99.90
51982;DHT22;37998;53.416;6.730;2023-04-02T00:29:15;3.60;99.90
51982;DHT22;37998;53.416;6.730;2023-04-02T00:31:46;3.60;99.90
51982;DHT22;37998;53.416;6.730;2023-04-02T00:34:24;3.60;99.90
51982;DHT22;37998;53.416;6.730;2023-04-02T00:36:52;3.60;99.90
51982;DHT22;37998;53.416;6.730;2023-04-02T00:39:44;3.60;99.90
51982;DHT22;37998;53.416;6.730;2023-04-02T00:42:11;3.60;99.90
51982;DHT22;37998;53.416;6.730;2023-04-02T00:44:39;3.50;99.90
51982;DHT22;37998;53.416;6.730;2023-04-02T00:47:34;3.50;99.90
51982;DHT22;37998;53.416;6.730;2023-04-02T00:52:36;3.50;99.90
51982;DHT22;37998;53.416;6.730;2023-04-02T00:55:23;3.50;99.90
51982;DHT22;37998;53.416;6.730;2023-04-02T00:57:50;3.40;99.90
51982;DHT22;37998;53.416;6.730;2023-04-02T01:00:21;3.40;99.90
51982;DHT22;37998;53.416;6.730;2023-04-02T01:03:26;3.40;99.90
51982;DHT22;37998;53.416;6.730;2023-04-02T01:06:01;3.40;99.90
51982;DHT22;37998;53.416;6.730;2023-04-02T01:08:48;3.40;99.90
51982;DHT22;37998;53.416;6.730;2023-04-02T01:14:16;3.30;99.90
51982;DHT22;37998;53.416;6.730;2023-04-02T01:19:50;3.30;99.90
51982;DHT22;37998;53.416;6.730;2023-04-02T01:24:44;3.20;99.90
51982;DHT22;37998;53.416;6.730;2023-04-02T01:27:18;3.20;99.90
51982;DHT22;37998;53.416;6.730;2023-04-02T01:29:55;3.20;99.90
51982;DHT22;37998;53.416;6.730;2023-04-02T01:32:24;3.20;99.90
51982;DHT22;37998;53.416;6.730;2023-04-02T01:34:50;3.20;99.90
51982;DHT22;37998;53.416;6.730;2023-04-02T01:45:49;3.00;99.90
51982;DHT22;37998;53.416;6.730;2023-04-02T01:48:21;3.00;99.90
51982;DHT22;37998;53.416;6.730;2023-04-02T01:50:50;3.00;99.90
51982;DHT22;37998;53.416;6.730;2023-04-02T01:53:18;3.00;99.90
51982;DHT22;37998;53.416;6.730;2023-04-02T01:55:53;3.00;99.90
51982;DHT22;37998;53.416;6.730;2023-04-02T01:58:22;3.00;99.90
51982;DHT22;37998;53.416;6.730;2023-04-02T02:00:58;3.00;99.90
51982;DHT22;37998;53.416;6.730;2023-04-02T02:03:26;3.00;99.90
51982;DHT22;37998;53.416;6.730;2023-04-02T02:05:52;3.00;99.90
51982;DHT22;37998;53.416;6.730;2023-04-02T02:08:38;2.90;99.90
51982;DHT22;37998;53.416;6.730;2023-04-02T02:11:09;2.90;99.90
51982;DHT22;37998;53.416;6.730;2023-04-02T02:13:36;2.90;99.90
51982;DHT22;37998;53.416;6.730;2023-04-02T02:16:02;2.90;99.90
51982;DHT22;37998;53.416;6.730;2023-04-02T02:18:29;2.90;99.90
51982;DHT22;37998;53.416;6.730;2023-04-02T02:20:57;2.90;99.90
51982;DHT22;37998;53.416;6.730;2023-04-02T02:23:27;2.80;99.90
51982;DHT22;37998;53.416;6.730;2023-04-02T02:25:54;2.80;99.90
51982;DHT22;37998;53.416;6.730;2023-04-02T02:28:32;2.80;99.90
51982;DHT22;37998;53.416;6.730;2023-04-02T02:31:04;2.80;99.90
51982;DHT22;37998;53.416;6.730;2023-04-02T02:33:50;2.80;99.90
51982;DHT22;37998;53.416;6.730;2023-04-02T02:36:42;2.80;99.90
51982;DHT22;37998;53.416;6.730;2023-04-02T02:39:12;2.80;99.90
51982;DHT22;37998;53.416;6.730;2023-04-02T02:41:45;2.70;99.90
51982;DHT22;37998;53.416;6.730;2023-04-02T02:44:26;2.70;99.90
51982;DHT22;37998;53.416;6.730;2023-04-02T02:46:58;2.70;99.90
51982;DHT22;37998;53.416;6.730;2023-04-02T02:49:44;2.70;99.90
51982;DHT22;37998;53.416;6.730;2023-04-02T02:52:17;2.70;99.90
51982;DHT22;37998;53.416;6.730;2023-04-02T02:54:51;2.70;99.90
51982;DHT22;37998;53.416;6.730;2023-04-02T02:57:41;2.70;99.90
51982;DHT22;37998;53.416;6.730;2023-04-02T03:00:09;2.70;99.90
51982;DHT22;37998;53.416;6.730;2023-04-02T03:02:40;2.70;99.90
51982;DHT22;37998;53.416;6.730;2023-04-02T03:05:07;2.60;99.90
51982;DHT22;37998;53.416;6.730;2023-04-02T03:07:34;2.60;99.90
51982;DHT22;37998;53.416;6.730;2023-04-02T03:10:46;2.60;99.90
51982;DHT22;37998;53.416;6.730;2023-04-02T03:13:28;2.60;99.90
51982;DHT22;37998;53.416;6.730;2023-04-02T03:16:22;2.50;99.90
51982;DHT22;37998;53.416;6.730;2023-04-02T03:23:55;2.50;99.90
51982;DHT22;37998;53.416;6.730;2023-04-02T03:29:21;2.60;99.90
51982;DHT22;37998;53.416;6.730;2023-04-02T03:34:27;2.60;99.90
51982;DHT22;37998;53.416;6.730;2023-04-02T03:39:43;2.50;99.90
51982;DHT22;37998;53.416;6.730;2023-04-02T03:42:34;2.50;99.90
51982;DHT22;37998;53.416;6.730;2023-04-02T03:47:41;2.50;99.90
51982;DHT22;37998;53.416;6.730;2023-04-02T03:52:40;2.50;99.90
51982;DHT22;37998;53.416;6.730;2023-04-02T03:55:16;2.50;99.90
51982;DHT22;37998;53.416;6.730;2023-04-02T03:57:46;2.50;99.90
51982;DHT22;37998;53.416;6.730;2023-04-02T04:00:24;2.50;99.90
51982;DHT22;37998;53.416;6.730;2023-04-02T04:02:59;2.50;99.90
51982;DHT22;37998;53.416;6.730;2023-04-02T04:05:36;2.50;99.90
51982;DHT22;37998;53.416;6.730;2023-04-02T04:08:13;2.50;99.90
51982;DHT22;37998;53.416;6.730;2023-04-02T04:10:41;2.50;99.90
51982;DHT22;37998;53.416;6.730;2023-04-02T04:13:13;2.50;99.90
51982;DHT22;37998;53.416;6.730;2023-04-02T04:21:11;2.50;99.90
51982;DHT22;37998;53.416;6.730;2023-04-02T04:23:40;2.50;99.90
51982;DHT22;37998;53.416;6.730;2023-04-02T04:26:24;2.50;99.90
51982;DHT22;37998;53.416;6.730;2023-04-02T04:31:49;2.60;99.90
51982;DHT22;37998;53.416;6.730;2023-04-02T04:34:26;2.50;99.90
51982;DHT22;37998;53.416;6.730;2023-04-02T04:36:58;2.50;99.90
51982;DHT22;37998;53.416;6.730;2023-04-02T04:39:42;2.50;99.90
51982;DHT22;37998;53.416;6.730;2023-04-02T04:42:20;2.50;99.90
51982;DHT22;37998;53.416;6.730;2023-04-02T04:47:27;2.50;99.90
51982;DHT22;37998;53.416;6.730;2023-04-02T04:50:18;2.60;99.90
51982;DHT22;37998;53.416;6.730;2023-04-02T04:52:46;2.60;99.90
51982;DHT22;37998;53.416;6.730;2023-04-02T04:55:38;2.60;99.90
51982;DHT22;37998;53.416;6.730;2023-04-02T04:58:23;2.60;99.90
51982;DHT22;37998;53.416;6.730;2023-04-02T05:01:06;2.60;99.90
51982;DHT22;37998;53.416;6.730;2023-04-02T05:06:12;2.50;99.90
51982;DHT22;37998;53.416;6.730;2023-04-02T05:08:43;2.60;99.90
51982;DHT22;37998;53.416;6.730;2023-04-02T05:11:18;2.60;99.90
51982;DHT22;37998;53.416;6.730;2023-04-02T05:13:53;2.60;99.90
51982;DHT22;37998;53.416;6.730;2023-04-02T05:16:27;2.60;99.90
51982;DHT22;37998;53.416;6.730;2023-04-02T05:19:06;2.60;99.90
51982;DHT22;37998;53.416;6.730;2023-04-02T05:21:48;2.60;99.90
51982;DHT22;37998;53.416;6.730;2023-04-02T05:27:20;2.70;99.90
51982;DHT22;37998;53.416;6.730;2023-04-02T05:29:58;2.70;99.90
51982;DHT22;37998;53.416;6.730;2023-04-02T05:32:30;2.70;99.90
51982;DHT22;37998;53.416;6.730;2023-04-02T05:34:57;1.50;99.90
51982;DHT22;37998;53.416;6.730;2023-04-02T05:37:26;2.70;99.90
51982;DHT22;37998;53.416;6.730;2023-04-02T05:39:56;2.70;99.90
51982;DHT22;37998;53.416;6.730;2023-04-02T05:42:26;2.70;99.90
51982;DHT22;37998;53.416;6.730;2023-04-02T05:45:29;2.80;99.90
51982;DHT22;37998;53.416;6.730;2023-04-02T05:47:49;2.80;99.90
51982;DHT22;37998;53.416;6.730;2023-04-02T05:52:49;2.90;99.90
51982;DHT22;37998;53.416;6.730;2023-04-02T05:57:46;2.90;99.90
51982;DHT22;37998;53.416;6.730;2023-04-02T06:00:41;3.00;99.90
51982;DHT22;37998;53.416;6.730;2023-04-02T06:03:14;3.00;99.90
51982;DHT22;37998;53.416;6.730;2023-04-02T06:05:44;3.10;99.90
51982;DHT22;37998;53.416;6.730;2023-04-02T06:10:46;3.10;99.90
51982;DHT22;37998;53.416;6.730;2023-04-02T06:13:17;3.20;99.90
51982;DHT22;37998;53.416;6.730;2023-04-02T06:15:43;3.20;99.90
51982;DHT22;37998;53.416;6.730;2023-04-02T06:18:33;3.30;99.90
51982;DHT22;37998;53.416;6.730;2023-04-02T06:21:01;3.30;99.90
51982;DHT22;37998;53.416;6.730;2023-04-02T06:23:40;3.30;99.90
51982;DHT22;37998;53.416;6.730;2023-04-02T06:34:06;3.50;99.90
51982;DHT22;37998;53.416;6.730;2023-04-02T06:36:36;3.50;99.90
51982;DHT22;37998;53.416;6.730;2023-04-02T06:39:09;3.60;99.90
51982;DHT22;37998;53.416;6.730;2023-04-02T06:41:35;3.60;99.90
51982;DHT22;37998;53.416;6.730;2023-04-02T06:44:06;3.60;99.90
51982;DHT22;37998;53.416;6.730;2023-04-02T06:46:46;3.70;99.90
51982;DHT22;37998;53.416;6.730;2023-04-02T06:55:16;4.10;99.90
51982;DHT22;37998;53.416;6.730;2023-04-02T06:57:46;4.10;99.90
51982;DHT22;37998;53.416;6.730;2023-04-02T07:00:37;4.20;99.90
51982;DHT22;37998;53.416;6.730;2023-04-02T07:03:27;4.20;99.90
51982;DHT22;37998;53.416;6.730;2023-04-02T07:05:53;4.20;99.90
51982;DHT22;37998;53.416;6.730;2023-04-02T07:08:19;4.20;99.90
51982;DHT22;37998;53.416;6.730;2023-04-02T07:10:45;4.20;99.90
51982;DHT22;37998;53.416;6.730;2023-04-02T07:13:15;4.20;99.90
51982;DHT22;37998;53.416;6.730;2023-04-02T07:15:46;4.30;99.90
51982;DHT22;37998;53.416;6.730;2023-04-02T07:18:29;4.30;99.90
51982;DHT22;37998;53.416;6.730;2023-04-02T07:20:55;4.30;99.90
51982;DHT22;37998;53.416;6.730;2023-04-02T07:23:21;4.50;99.90
51982;DHT22;37998;53.416;6.730;2023-04-02T07:25:48;4.50;99.90
51982;DHT22;37998;53.416;6.730;2023-04-02T07:28:14;5.00;99.90
51982;DHT22;37998;53.416;6.730;2023-04-02T07:30:41;5.30;99.90
51982;DHT22;37998;53.416;6.730;2023-04-02T07:33:12;5.30;99.90
51982;DHT22;37998;53.416;6.730;2023-04-02T07:35:38;5.20;99.90
51982;DHT22;37998;53.416;6.730;2023-04-02T07:38:06;5.10;99.90
51982;DHT22;37998;53.416;6.730;2023-04-02T07:40:32;5.10;99.90
51982;DHT22;37998;53.416;6.730;2023-04-02T07:42:58;5.10;99.90
51982;DHT22;37998;53.416;6.730;2023-04-02T07:45:24;5.10;99.90
51982;DHT22;37998;53.416;6.730;2023-04-02T07:47:50;5.10;99.90
51982;DHT22;37998;53.416;6.730;2023-04-02T07:50:16;5.10;99.90
51982;DHT22;37998;53.416;6.730;2023-04-02T07:52:42;5.20;99.90
51982;DHT22;37998;53.416;6.730;2023-04-02T07:55:12;5.30;99.90
51982;DHT22;37998;53.416;6.730;2023-04-02T07:57:39;5.30;99.90
51982;DHT22;37998;53.416;6.730;2023-04-02T08:00:08;5.40;99.90
51982;DHT22;37998;53.416;6.730;2023-04-02T08:02:35;5.50;99.90
51982;DHT22;37998;53.416;6.730;2023-04-02T08:05:00;5.50;99.90
51982;DHT22;37998;53.416;6.730;2023-04-02T08:07:27;5.50;99.90
51982;DHT22;37998;53.416;6.730;2023-04-02T08:09:53;5.50;99.90
51982;DHT22;37998;53.416;6.730;2023-04-02T08:12:18;5.50;99.90
51982;DHT22;37998;53.416;6.730;2023-04-02T08:14:44;5.40;99.90
51982;DHT22;37998;53.416;6.730;2023-04-02T08:17:10;5.50;99.90
51982;DHT22;37998;53.416;6.730;2023-04-02T08:19:35;5.60;99.90
51982;DHT22;37998;53.416;6.730;2023-04-02T08:22:01;5.60;99.90
51982;DHT22;37998;53.416;6.730;2023-04-02T08:24:27;5.70;99.90
51982;DHT22;37998;53.416;6.730;2023-04-02T08:26:53;5.70;99.90
51982;DHT22;37998;53.416;6.730;2023-04-02T08:29:20;5.80;99.90
51982;DHT22;37998;53.416;6.730;2023-04-02T08:31:45;5.90;99.90
51982;DHT22;37998;53.416;6.730;2023-04-02T08:34:11;6.00;99.90
51982;DHT22;37998;53.416;6.730;2023-04-02T08:36:38;6.40;99.90
51982;DHT22;37998;53.416;6.730;2023-04-02T08:39:06;6.50;99.90
51982;DHT22;37998;53.416;6.730;2023-04-02T08:41:49;6.70;99.90
51982;DHT22;37998;53.416;6.730;2023-04-02T08:47:02;6.80;99.90
51982;DHT22;37998;53.416;6.730;2023-04-02T08:49:30;6.80;99.90
51982;DHT22;37998;53.416;6.730;2023-04-02T08:51:56;6.70;99.90
51982;DHT22;37998;53.416;6.730;2023-04-02T08:54:30;6.40;99.90
51982;DHT22;37998;53.416;6.730;2023-04-02T08:57:06;6.30;99.90
51982;DHT22;37998;53.416;6.730;2023-04-02T08:59:39;6.40;99.90
51982;DHT22;37998;53.416;6.730;2023-04-02T09:05:06;6.20;99.90
51982;DHT22;37998;53.416;6.730;2023-04-02T09:07:32;6.30;99.90
51982;DHT22;37998;53.416;6.730;2023-04-02T09:09:59;6.30;99.90
51982;DHT22;37998;53.416;6.730;2023-04-02T09:12:27;6.40;99.90
51982;DHT22;37998;53.416;6.730;2023-04-02T09:17:34;6.40;99.90
51982;DHT22;37998;53.416;6.730;2023-04-02T09:20:24;6.30;99.90
51982;DHT22;37998;53.416;6.730;2023-04-02T09:22:54;6.40;99.90
51982;DHT22;37998;53.416;6.730;2023-04-02T09:25:25;6.40;99.90
51982;DHT22;37998;53.416;6.730;2023-04-02T09:28:01;6.30;99.90
51982;DHT22;37998;53.416;6.730;2023-04-02T09:33:04;6.60;99.90
51982;DHT22;37998;53.416;6.730;2023-04-02T09:35:35;6.60;99.90
51982;DHT22;37998;53.416;6.730;2023-04-02T09:38:20;6.60;99.90
51982;DHT22;37998;53.416;6.730;2023-04-02T09:48:44;6.80;99.90
51982;DHT22;37998;53.416;6.730;2023-04-02T09:51:22;6.80;99.90
51982;DHT22;37998;53.416;6.730;2023-04-02T09:54:13;6.80;99.90
51982;DHT22;37998;53.416;6.730;2023-04-02T09:56:38;7.00;99.90
51982;DHT22;37998;53.416;6.730;2023-04-02T10:01:40;7.00;99.90
51982;DHT22;37998;53.416;6.730;2023-04-02T10:04:44;7.00;99.90
51982;DHT22;37998;53.416;6.730;2023-04-02T10:10:20;7.10;99.90
51982;DHT22;37998;53.416;6.730;2023-04-02T10:12:59;7.00;99.90
51982;DHT22;37998;53.416;6.730;2023-04-02T10:21:07;7.00;99.90
51982;DHT22;37998;53.416;6.730;2023-04-02T10:23:34;7.20;99.90
51982;DHT22;37998;53.416;6.730;2023-04-02T10:31:47;7.20;99.90
51982;DHT22;37998;53.416;6.730;2023-04-02T10:34:24;7.30;99.90
51982;DHT22;37998;53.416;6.730;2023-04-02T10:36:54;7.30;99.90
51982;DHT22;37998;53.416;6.730;2023-04-02T10:39:27;7.40;99.90
51982;DHT22;37998;53.416;6.730;2023-04-02T10:42:05;7.40;99.90
51982;DHT22;37998;53.416;6.730;2023-04-02T10:52:46;7.50;99.90
51982;DHT22;37998;53.416;6.730;2023-04-02T10:55:22;7.40;99.90
51982;DHT22;37998;53.416;6.730;2023-04-02T10:57:52;7.40;99.90
51982;DHT22;37998;53.416;6.730;2023-04-02T11:00:24;7.40;99.90
51982;DHT22;37998;53.416;6.730;2023-04-02T11:03:17;7.40;99.90
51982;DHT22;37998;53.416;6.730;2023-04-02T11:05:53;7.40;99.90
51982;DHT22;37998;53.416;6.730;2023-04-02T11:10:57;7.50;99.90
51982;DHT22;37998;53.416;6.730;2023-04-02T11:13:31;7.50;99.90
51982;DHT22;37998;53.416;6.730;2023-04-02T11:16:00;7.60;99.90
51982;DHT22;37998;53.416;6.730;2023-04-02T11:18:31;7.70;99.90
51982;DHT22;37998;53.416;6.730;2023-04-02T11:21:03;7.80;99.90
51982;DHT22;37998;53.416;6.730;2023-04-02T11:26:30;7.80;99.90
51982;DHT22;37998;53.416;6.730;2023-04-02T11:29:10;8.00;99.90
51982;DHT22;37998;53.416;6.730;2023-04-02T11:31:38;7.90;99.90
51982;DHT22;37998;53.416;6.730;2023-04-02T11:34:04;8.00;99.90
51982;DHT22;37998;53.416;6.730;2023-04-02T11:39:44;7.90;99.90
51982;DHT22;37998;53.416;6.730;2023-04-02T11:42:30;7.90;99.90
51982;DHT22;37998;53.416;6.730;2023-04-02T11:45:00;7.90;99.90
51982;DHT22;37998;53.416;6.730;2023-04-02T11:47:27;8.00;99.90
51982;DHT22;37998;53.416;6.730;2023-04-02T12:06:17;8.10;99.90
51982;DHT22;37998;53.416;6.730;2023-04-02T12:09:19;8.10;99.90
51982;DHT22;37998;53.416;6.730;2023-04-02T12:11:47;8.10;99.90
51982;DHT22;37998;53.416;6.730;2023-04-02T12:14:44;8.10;99.90
51982;DHT22;37998;53.416;6.730;2023-04-02T12:17:37;8.10;99.90
51982;DHT22;37998;53.416;6.730;2023-04-02T12:22:39;8.20;99.90
51982;DHT22;37998;53.416;6.730;2023-04-02T12:25:22;8.20;99.90
51982;DHT22;37998;53.416;6.730;2023-04-02T12:28:15;8.20;99.90
51982;DHT22;37998;53.416;6.730;2023-04-02T12:30:45;8.20;99.90
51982;DHT22;37998;53.416;6.730;2023-04-02T12:35:42;8.20;99.90
51982;DHT22;37998;53.416;6.730;2023-04-02T12:41:02;8.10;99.90
51982;DHT22;37998;53.416;6.730;2023-04-02T12:43:33;8.00;99.90
51982;DHT22;37998;53.416;6.730;2023-04-02T12:46:02;8.10;99.90
51982;DHT22;37998;53.416;6.730;2023-04-02T12:48:29;8.10;99.90
51982;DHT22;37998;53.416;6.730;2023-04-02T12:50:56;8.30;99.90
51982;DHT22;37998;53.416;6.730;2023-04-02T12:53:33;8.30;99.90
51982;DHT22;37998;53.416;6.730;2023-04-02T12:56:01;8.30;99.90
51982;DHT22;37998;53.416;6.730;2023-04-02T12:58:34;8.20;99.90
51982;DHT22;37998;53.416;6.730;2023-04-02T13:01:18;8.20;99.90
51982;DHT22;37998;53.416;6.730;2023-04-02T13:06:29;8.30;99.90
51982;DHT22;37998;53.416;6.730;2023-04-02T13:08:56;8.30;99.90
51982;DHT22;37998;53.416;6.730;2023-04-02T13:11:24;8.40;99.90
51982;DHT22;37998;53.416;6.730;2023-04-02T13:14:00;8.30;99.90
51982;DHT22;37998;53.416;6.730;2023-04-02T13:16:37;8.40;99.90
51982;DHT22;37998;53.416;6.730;2023-04-02T13:21:51;8.50;99.90
51982;DHT22;37998;53.416;6.730;2023-04-02T13:24:21;8.40;99.90
51982;DHT22;37998;53.416;6.730;2023-04-02T13:26:48;8.30;99.90
51982;DHT22;37998;53.416;6.730;2023-04-02T13:29:19;8.40;99.90
51982;DHT22;37998;53.416;6.730;2023-04-02T13:31:46;8.30;99.90
51982;DHT22;37998;53.416;6.730;2023-04-02T13:34:12;8.30;99.90
51982;DHT22;37998;53.416;6.730;2023-04-02T13:36:37;8.30;99.90
51982;DHT22;37998;53.416;6.730;2023-04-02T13:39:03;8.30;99.90
51982;DHT22;37998;53.416;6.730;2023-04-02T13:41:31;8.20;99.90
51982;DHT22;37998;53.416;6.730;2023-04-02T13:44:00;8.20;99.90
51982;DHT22;37998;53.416;6.730;2023-04-02T13:46:28;8.20;99.90
51982;DHT22;37998;53.416;6.730;2023-04-02T13:48:55;8.30;99.90
51982;DHT22;37998;53.416;6.730;2023-04-02T13:51:33;8.40;99.90
51982;DHT22;37998;53.416;6.730;2023-04-02T13:53:59;8.40;99.90
51982;DHT22;37998;53.416;6.730;2023-04-02T13:56:25;8.40;99.90
51982;DHT22;37998;53.416;6.730;2023-04-02T13:58:51;8.50;99.90
51982;DHT22;37998;53.416;6.730;2023-04-02T14:01:21;8.40;99.90
51982;DHT22;37998;53.416;6.730;2023-04-02T14:03:48;8.40;99.90
51982;DHT22;37998;53.416;6.730;2023-04-02T14:06:26;8.40;99.90
51982;DHT22;37998;53.416;6.730;2023-04-02T14:23:11;8.40;99.90
51982;DHT22;37998;53.416;6.730;2023-04-02T14:26:02;8.40;99.90
51982;DHT22;37998;53.416;6.730;2023-04-02T14:28:47;8.40;99.90
51982;DHT22;37998;53.416;6.730;2023-04-02T14:39:43;8.40;99.90
51982;DHT22;37998;53.416;6.730;2023-04-02T14:42:41;8.40;99.90
51982;DHT22;37998;53.416;6.730;2023-04-02T14:45:13;8.40;99.90
51982;DHT22;37998;53.416;6.730;2023-04-02T14:47:45;8.50;99.90
51982;DHT22;37998;53.416;6.730;2023-04-02T14:50:27;8.40;99.90
51982;DHT22;37998;53.416;6.730;2023-04-02T14:52:57;8.50;99.90
51982;DHT22;37998;53.416;6.730;2023-04-02T14:55:37;8.50;99.90
51982;DHT22;37998;53.416;6.730;2023-04-02T14:58:12;8.40;99.60
51982;DHT22;37998;53.416;6.730;2023-04-02T15:00:43;8.40;99.50
51982;DHT22;37998;53.416;6.730;2023-04-02T15:03:24;8.40;99.80
51982;DHT22;37998;53.416;6.730;2023-04-02T15:08:35;8.40;99.40
51982;DHT22;37998;53.416;6.730;2023-04-02T15:11:14;8.40;99.40
51982;DHT22;37998;53.416;6.730;2023-04-02T15:16:25;8.40;99.20
51982;DHT22;37998;53.416;6.730;2023-04-02T15:18:58;8.40;99.40
51982;DHT22;37998;53.416;6.730;2023-04-02T15:30:05;8.40;99.00
51982;DHT22;37998;53.416;6.730;2023-04-02T15:43:38;8.30;99.50
51982;DHT22;37998;53.416;6.730;2023-04-02T15:48:48;8.30;99.30
51982;DHT22;37998;53.416;6.730;2023-04-02T15:59:51;8.30;99.30
51982;DHT22;37998;53.416;6.730;2023-04-02T16:02:45;8.30;98.90
51982;DHT22;37998;53.416;6.730;2023-04-02T16:05:19;8.20;99.00
51982;DHT22;37998;53.416;6.730;2023-04-02T16:10:37;8.20;98.50
51982;DHT22;37998;53.416;6.730;2023-04-02T16:13:18;8.20;98.60
51982;DHT22;37998;53.416;6.730;2023-04-02T16:19:15;8.20;99.10
51982;DHT22;37998;53.416;6.730;2023-04-02T16:21:18;8.20;99.00
51982;DHT22;37998;53.416;6.730;2023-04-02T16:23:45;8.10;99.10
51982;DHT22;37998;53.416;6.730;2023-04-02T16:29:25;8.10;98.80
51982;DHT22;37998;53.416;6.730;2023-04-02T16:43:04;7.90;99.20
51982;DHT22;37998;53.416;6.730;2023-04-02T16:46:09;7.90;99.90
51982;DHT22;37998;53.416;6.730;2023-04-02T16:48:54;7.80;99.90
51982;DHT22;37998;53.416;6.730;2023-04-02T16:51:36;7.80;99.90
51982;DHT22;37998;53.416;6.730;2023-04-02T16:54:30;7.80;99.90
51982;DHT22;37998;53.416;6.730;2023-04-02T17:05:14;7.60;99.90
51982;DHT22;37998;53.416;6.730;2023-04-02T17:07:54;7.60;99.90
51982;DHT22;37998;53.416;6.730;2023-04-02T17:10:30;7.60;99.90
51982;DHT22;37998;53.416;6.730;2023-04-02T17:13:00;7.60;99.90
51982;DHT22;37998;53.416;6.730;2023-04-02T17:15:35;7.60;99.90
51982;DHT22;37998;53.416;6.730;2023-04-02T17:18:10;7.60;99.90
51982;DHT22;37998;53.416;6.730;2023-04-02T17:20:38;7.60;99.90
51982;DHT22;37998;53.416;6.730;2023-04-02T17:23:05;7.60;99.90
51982;DHT22;37998;53.416;6.730;2023-04-02T17:25:43;7.50;99.90
51982;DHT22;37998;53.416;6.730;2023-04-02T17:28:14;7.50;99.90
51982;DHT22;37998;53.416;6.730;2023-04-02T17:30:48;7.50;99.90
51982;DHT22;37998;53.416;6.730;2023-04-02T17:33:16;7.50;99.90
51982;DHT22;37998;53.416;6.730;2023-04-02T17:35:57;7.40;99.90
51982;DHT22;37998;53.416;6.730;2023-04-02T17:41:15;7.40;99.10
51982;DHT22;37998;53.416;6.730;2023-04-02T17:47:28;7.30;99.00
51982;DHT22;37998;53.416;6.730;2023-04-02T17:52:27;7.20;98.70
51982;DHT22;37998;53.416;6.730;2023-04-02T18:08:55;6.90;98.90
51982;DHT22;37998;53.416;6.730;2023-04-02T18:30:41;6.60;99.00
51982;DHT22;37998;53.416;6.730;2023-04-02T18:36:27;6.70;98.00
51982;DHT22;37998;53.416;6.730;2023-04-02T18:39:03;6.70;98.00
51982;DHT22;37998;53.416;6.730;2023-04-02T18:49:50;6.50;98.50
51982;DHT22;37998;53.416;6.730;2023-04-02T18:52:18;6.50;99.00
51982;DHT22;37998;53.416;6.730;2023-04-02T18:54:50;6.40;99.20
51982;DHT22;37998;53.416;6.730;2023-04-02T18:57:24;6.40;98.80
51982;DHT22;37998;53.416;6.730;2023-04-02T19:00:01;6.40;98.70
51982;DHT22;37998;53.416;6.730;2023-04-02T19:02:46;6.40;98.70
51982;DHT22;37998;53.416;6.730;2023-04-02T19:05:23;6.50;98.60
51982;DHT22;37998;53.416;6.730;2023-04-02T19:10:36;6.30;98.00
51982;DHT22;37998;53.416;6.730;2023-04-02T19:13:16;6.30;98.00
51982;DHT22;37998;53.416;6.730;2023-04-02T19:21:17;6.20;98.20
51982;DHT22;37998;53.416;6.730;2023-04-02T19:27:03;6.10;98.60
51982;DHT22;37998;53.416;6.730;2023-04-02T19:32:31;6.00;98.80
51982;DHT22;37998;53.416;6.730;2023-04-02T19:43:09;6.00;98.90
51982;DHT22;37998;53.416;6.730;2023-04-02T19:45:44;6.00;99.20
51982;DHT22;37998;53.416;6.730;2023-04-02T19:50:43;5.90;99.70
51982;DHT22;37998;53.416;6.730;2023-04-02T19:53:10;5.90;99.90
51982;DHT22;37998;53.416;6.730;2023-04-02T19:55:36;5.80;99.90
51982;DHT22;37998;53.416;6.730;2023-04-02T19:58:02;5.80;99.90
51982;DHT22;37998;53.416;6.730;2023-04-02T20:00:27;5.80;99.90
51982;DHT22;37998;53.416;6.730;2023-04-02T20:02:53;5.70;99.90
51982;DHT22;37998;53.416;6.730;2023-04-02T20:05:19;5.70;99.90
51982;DHT22;37998;53.416;6.730;2023-04-02T20:07:44;5.70;99.90
51982;DHT22;37998;53.416;6.730;2023-04-02T20:10:10;5.70;99.90
51982;DHT22;37998;53.416;6.730;2023-04-02T20:12:36;5.70;99.90
51982;DHT22;37998;53.416;6.730;2023-04-02T20:15:04;5.70;99.90
51982;DHT22;37998;53.416;6.730;2023-04-02T20:17:30;5.70;99.90
51982;DHT22;37998;53.416;6.730;2023-04-02T20:19:55;5.60;99.90
51982;DHT22;37998;53.416;6.730;2023-04-02T20:22:22;5.80;99.90
51982;DHT22;37998;53.416;6.730;2023-04-02T20:24:48;5.70;99.90
51982;DHT22;37998;53.416;6.730;2023-04-02T20:27:13;5.70;99.90
51982;DHT22;37998;53.416;6.730;2023-04-02T20:29:39;5.70;99.90
51982;DHT22;37998;53.416;6.730;2023-04-02T20:32:07;5.70;99.90
51982;DHT22;37998;53.416;6.730;2023-04-02T20:34:33;5.70;99.90
51982;DHT22;37998;53.416;6.730;2023-04-02T20:36:59;5.70;99.90
51982;DHT22;37998;53.416;6.730;2023-04-02T20:39:25;5.60;99.90
51982;DHT22;37998;53.416;6.730;2023-04-02T20:41:53;5.60;99.90
51982;DHT22;37998;53.416;6.730;2023-04-02T20:44:18;5.60;99.90
51982;DHT22;37998;53.416;6.730;2023-04-02T20:46:44;5.60;99.90
51982;DHT22;37998;53.416;6.730;2023-04-02T20:49:10;5.60;99.90
51982;DHT22;37998;53.416;6.730;2023-04-02T20:51:36;5.60;99.90
51982;DHT22;37998;53.416;6.730;2023-04-02T20:54:02;5.60;99.90
51982;DHT22;37998;53.416;6.730;2023-04-02T20:56:27;5.60;99.90
51982;DHT22;37998;53.416;6.730;2023-04-02T20:58:54;5.50;99.90
51982;DHT22;37998;53.416;6.730;2023-04-02T21:01:25;5.50;99.90
51982;DHT22;37998;53.416;6.730;2023-04-02T21:03:59;5.60;99.90
51982;DHT22;37998;53.416;6.730;2023-04-02T21:06:27;5.50;99.90
51982;DHT22;37998;53.416;6.730;2023-04-02T21:08:54;5.50;99.90
51982;DHT22;37998;53.416;6.730;2023-04-02T21:11:20;5.50;99.90
51982;DHT22;37998;53.416;6.730;2023-04-02T21:13:47;5.50;99.90
51982;DHT22;37998;53.416;6.730;2023-04-02T21:16:22;5.40;99.90
51982;DHT22;37998;53.416;6.730;2023-04-02T21:18:51;5.40;99.90
51982;DHT22;37998;53.416;6.730;2023-04-02T21:21:18;5.40;99.90
51982;DHT22;37998;53.416;6.730;2023-04-02T21:23:45;5.40;99.90
51982;DHT22;37998;53.416;6.730;2023-04-02T21:26:15;5.40;99.90
51982;DHT22;37998;53.416;6.730;2023-04-02T21:28:42;5.40;99.90
51982;DHT22;37998;53.416;6.730;2023-04-02T21:31:16;5.30;99.90
51982;DHT22;37998;53.416;6.730;2023-04-02T21:33:45;5.30;99.90
51982;DHT22;37998;53.416;6.730;2023-04-02T21:36:13;5.30;99.90
51982;DHT22;37998;53.416;6.730;2023-04-02T21:39:08;5.30;99.90
51982;DHT22;37998;53.416;6.730;2023-04-02T21:41:34;5.30;99.90
51982;DHT22;37998;53.416;6.730;2023-04-02T21:44:08;5.30;99.90
51982;DHT22;37998;53.416;6.730;2023-04-02T21:46:36;5.20;99.90
51982;DHT22;37998;53.416;6.730;2023-04-02T21:49:04;5.20;99.90
51982;DHT22;37998;53.416;6.730;2023-04-02T21:51:34;5.20;99.90